Banner



Журнал Авиация и Спорт

 

 

Страница пилота

Данные METAR получены с http://aviationweather.gov/adds/metars/
Текст METAR: UUDD 221130Z 33004MPS 5000 -SHSN BKN015CB M09/M13 Q1025 R88/420295 NOSIG
Условия на: UUDD (MOSCOW/DOMODEDOV, RU) observed 1130 UTC 22 February 2018
Температура: -9.0°C (16°F)
Точка росы: -13.0°C (9°F) [RH = 73%]
Давление (альтиметр): 30.27 inches Hg (1025.0 mb)
Ветер: from the NNW (330 degrees) at 9 MPH (8 knots; 4.2 m/s)
Видимость: 3 miles (5 km)
Высота облачности: 1500 feet AGL
Облачность: broken clouds at 1500 feet AGL
Погода: -SHSN  (light snow showers)
Прогноз на: UUDD (MOSCOW/DOMODEDOV, RU)
Текст: TAF UUDD 221057Z 2212/2318 31003MPS 8000 SCT020 TXM09/2212Z TNM18/2305Z
Период прогноза: 1200 UTC 22 February 2018 to 1800 UTC 23 February 2018
Тип прогноза: FROM: standard forecast or significant change
Ветер: from the NW (310 degrees) at 7 MPH (6 knots; 3.1 m/s)
Видимость: 5 miles (8 km)
Облачность: scattered clouds at 2000 feet AGL
Погода: no significant weather forecast for this period
Текст: TEMPO 2212/2218 -SN BKN011
Период прогноза: 1200 to 1800 UTC 22 February 2018
Тип прогноза: TEMPORARY: The following changes expected for less than half the time period
Высота облачности: 1100 feet AGL
Облачность: broken clouds at 1100 feet AGL
Погода: -SN  (light snow)
Текст: PROB40
Период прогноза: 2000 UTC 22 February 2018 to 0800 UTC 23 February 2018
Тип прогноза: TEMPORARY: The following changes expected for less than half the time period
Видимость: 0.19 miles (0.31 km)
Облачность: scattered clouds at 200 feet AGL
Погода: FZFG  (freezing fog)
Текст METAR: UUWW 221130Z 31004MPS 9999 -SN BKN022 M10/M15 Q1026 R24/190055 NOSIG
Условия на: UUWW (MOSCOW/VNUKOVO , RU) observed 1130 UTC 22 February 2018
Температура: -10.0°C (14°F)
Точка росы: -15.0°C (5°F) [RH = 67%]
Давление (альтиметр): 30.30 inches Hg (1026.0 mb)
Ветер: from the NW (310 degrees) at 9 MPH (8 knots; 4.2 m/s)
Видимость: 6 or more miles (10+ km)
Высота облачности: 2200 feet AGL
Облачность: broken clouds at 2200 feet AGL
Погода: -SN  (light snow)
Прогноз на: UUWW (MOSCOW/VNUKOVO , RU)
Текст: TAF UUWW 221056Z 2212/2312 32004MPS 9999 BKN015 TXM09/2212Z TNM16/2306Z
Период прогноза: 1200 UTC 22 February 2018 to 1200 UTC 23 February 2018
Тип прогноза: FROM: standard forecast or significant change
Ветер: from the NW (320 degrees) at 9 MPH (8 knots; 4.2 m/s)
Видимость: 6 or more miles (10+ km)
Высота облачности: 1500 feet AGL
Облачность: broken clouds at 1500 feet AGL
Погода: no significant weather forecast for this period
Текст: TEMPO 2212/2216 -SN
Период прогноза: 1200 to 1600 UTC 22 February 2018
Тип прогноза: TEMPORARY: The following changes expected for less than half the time period
Погода: -SN  (light snow)
Текст METAR: UUEE 221130Z 31003MPS 9999 SCT026 M09/M14 Q1026 R24L/410345 R24R/410340 NOSIG
Условия на: UUEE (MOSCOW/SHEREMET', RU) observed 1130 UTC 22 February 2018
Температура: -9.0°C (16°F)
Точка росы: -14.0°C (7°F) [RH = 67%]
Давление (альтиметр): 30.30 inches Hg (1026.0 mb)
Ветер: from the NW (310 degrees) at 7 MPH (6 knots; 3.1 m/s)
Видимость: 6 or more miles (10+ km)
Высота облачности: at least 12,000 feet AGL
Облачность: scattered clouds at 2600 feet AGL
Погода: no significant weather observed at this time
Прогноз на: UUEE (MOSCOW/SHEREMET', RU)
Текст: TAF UUEE 221100Z 2212/2312 32003MPS 9999 SCT011 TXM09/2212Z TNM20/2303Z
Период прогноза: 1200 UTC 22 February 2018 to 1200 UTC 23 February 2018
Тип прогноза: FROM: standard forecast or significant change
Ветер: from the NW (320 degrees) at 7 MPH (6 knots; 3.1 m/s)
Видимость: 6 or more miles (10+ km)
Облачность: scattered clouds at 1100 feet AGL
Погода: no significant weather forecast for this period

вернуться на главную